Terminal Aerodrome Forecast
Issued by NWS

Home | Current Version | Previous Version | Text Only | Print | Product List | Glossary On
Versions: 1 2 3 4 5 6 7 8 9 10 11 12 13 14
672
FTUS45 KABQ 241735
TAFROW
TAF
KROW 241735Z 2418/2518 31030G40KT P6SM SCT070
     FM242200 33020G28KT P6SM BKN070
     FM250100 01011KT P6SM SKC
     FM250400 VRB05KT P6SM SKC=

USA.gov is the U.S. government's official web portal to all federal, state and local government web resources and services.